SWA2026 PHNL-KOAK
Flight info
| Callsign | SWA2026 |
|---|---|
| Flight time | N/A |
| Altitude | 35000 |
| Route | MKK5 KOLEA CLUTS R465 CINNY PIRAT3 |
| Aircraft | B38M/M-SADE2E3GHIJ4J7M3P2RWZ/LB1D1 |
Departure
| Time | 2026-05-05 10:18 |
|---|---|
| Airport | Daniel K. Inouye International Airport (PHNL) |
Arrival
| Time | N/A |
|---|---|
| Airport | San Francisco Bay Oakland International Airport (KOAK) |
| Time | Latitude | Longitude | Altitude | Speed | Heading |
|---|---|---|---|---|---|
| 2026-05-05 10:02 | 21.32937 | -157.91736 | 26 ft | 0 kts | 73° |
| 2026-05-05 10:07 | 21.32937 | -157.91737 | 16 ft | 2 kts | 73° |
| 2026-05-05 10:07 | 21.32930 | -157.91763 | 16 ft | 4 kts | 73° |
| 2026-05-05 10:07 | 21.32922 | -157.91791 | 18 ft | 4 kts | 78° |
| 2026-05-05 10:08 | 21.32921 | -157.91818 | 19 ft | 4 kts | 112° |
| 2026-05-05 10:08 | 21.32935 | -157.91832 | 17 ft | 4 kts | 183° |
| 2026-05-05 10:08 | 21.32940 | -157.91832 | 19 ft | 2 kts | 190° |
| 2026-05-05 10:10 | 21.32926 | -157.91835 | 16 ft | 4 kts | 190° |
| 2026-05-05 10:11 | 21.32888 | -157.91842 | 15 ft | 7 kts | 190° |
| 2026-05-05 10:11 | 21.32828 | -157.91852 | 14 ft | 10 kts | 187° |
| 2026-05-05 10:11 | 21.32753 | -157.91866 | 13 ft | 12 kts | 199° |
| 2026-05-05 10:11 | 21.32674 | -157.91877 | 15 ft | 11 kts | 151° |
| 2026-05-05 10:12 | 21.32608 | -157.91827 | 15 ft | 13 kts | 144° |
| 2026-05-05 10:12 | 21.32524 | -157.91774 | 13 ft | 15 kts | 148° |
| 2026-05-05 10:12 | 21.32435 | -157.91698 | 12 ft | 17 kts | 141° |
| 2026-05-05 10:12 | 21.32339 | -157.91620 | 13 ft | 18 kts | 143° |
| 2026-05-05 10:13 | 21.32229 | -157.91532 | 10 ft | 21 kts | 143° |
| 2026-05-05 10:13 | 21.32144 | -157.91464 | 12 ft | 9 kts | 153° |
| 2026-05-05 10:13 | 21.32133 | -157.91464 | 12 ft | 1 kts | 187° |
| 2026-05-05 10:13 | 21.32125 | -157.91468 | 13 ft | 2 kts | 213° |
| 2026-05-05 10:14 | 21.32107 | -157.91489 | 13 ft | 6 kts | 234° |
| 2026-05-05 10:14 | 21.32075 | -157.91535 | 12 ft | 9 kts | 233° |
| 2026-05-05 10:14 | 21.32034 | -157.91594 | 12 ft | 11 kts | 233° |
| 2026-05-05 10:14 | 21.31980 | -157.91648 | 16 ft | 10 kts | 214° |
| 2026-05-05 10:15 | 21.31923 | -157.91689 | 16 ft | 10 kts | 214° |
| 2026-05-05 10:15 | 21.31874 | -157.91742 | 16 ft | 11 kts | 233° |
| 2026-05-05 10:15 | 21.31822 | -157.91816 | 15 ft | 14 kts | 233° |
| 2026-05-05 10:15 | 21.31759 | -157.91905 | 14 ft | 16 kts | 233° |
| 2026-05-05 10:16 | 21.31689 | -157.92003 | 15 ft | 18 kts | 233° |
| 2026-05-05 10:16 | 21.31620 | -157.92104 | 11 ft | 12 kts | 247° |
| 2026-05-05 10:16 | 21.31655 | -157.92176 | 9 ft | 8 kts | 325° |
| 2026-05-05 10:16 | 21.31707 | -157.92212 | 10 ft | 9 kts | 327° |
| 2026-05-05 10:17 | 21.31754 | -157.92201 | 12 ft | 7 kts | 46° |
| 2026-05-05 10:17 | 21.31787 | -157.92156 | 13 ft | 18 kts | 53° |
| 2026-05-05 10:17 | 21.32039 | -157.91799 | 14 ft | 101 kts | 53° |
| 2026-05-05 10:17 | 21.32614 | -157.90975 | 25 ft | 170 kts | 56° |
| 2026-05-05 10:18 | 21.33331 | -157.89827 | 626 ft | 192 kts | 62° |
| 2026-05-05 10:18 | 21.33656 | -157.88468 | 1737 ft | 191 kts | 91° |
| 2026-05-05 10:18 | 21.33251 | -157.87092 | 2696 ft | 201 kts | 117° |
| 2026-05-05 10:18 | 21.32413 | -157.85838 | 3512 ft | 213 kts | 127° |
| 2026-05-05 10:19 | 21.31430 | -157.84618 | 4331 ft | 222 kts | 130° |
| 2026-05-05 10:19 | 21.30417 | -157.83291 | 4979 ft | 241 kts | 121° |
| 2026-05-05 10:19 | 21.29832 | -157.81554 | 5659 ft | 254 kts | 102° |
| 2026-05-05 10:19 | 21.29425 | -157.79649 | 6364 ft | 270 kts | 105° |
| 2026-05-05 10:20 | 21.28961 | -157.77660 | 7199 ft | 276 kts | 105° |
| 2026-05-05 10:20 | 21.28486 | -157.75672 | 8058 ft | 282 kts | 105° |
| 2026-05-05 10:20 | 21.27986 | -157.73614 | 8916 ft | 287 kts | 105° |
| 2026-05-05 10:20 | 21.27474 | -157.71523 | 9789 ft | 293 kts | 105° |
| 2026-05-05 10:21 | 21.26945 | -157.69379 | 10463 ft | 304 kts | 105° |
| 2026-05-05 10:21 | 21.26382 | -157.67114 | 10850 ft | 325 kts | 105° |
| 2026-05-05 10:21 | 21.25782 | -157.64707 | 11211 ft | 343 kts | 105° |
| 2026-05-05 10:21 | 21.25155 | -157.62186 | 11701 ft | 355 kts | 105° |
| 2026-05-05 10:22 | 21.24517 | -157.59620 | 12440 ft | 358 kts | 105° |
| 2026-05-05 10:22 | 21.23867 | -157.57005 | 13036 ft | 367 kts | 105° |
| 2026-05-05 10:22 | 21.23205 | -157.54339 | 13690 ft | 372 kts | 105° |
| 2026-05-05 10:22 | 21.22533 | -157.51637 | 14289 ft | 377 kts | 105° |
| 2026-05-05 10:23 | 21.21862 | -157.48942 | 14904 ft | 380 kts | 105° |
| 2026-05-05 10:23 | 21.21180 | -157.46204 | 15585 ft | 381 kts | 106° |
| 2026-05-05 10:23 | 21.20489 | -157.43433 | 16081 ft | 387 kts | 106° |
| 2026-05-05 10:23 | 21.19789 | -157.40627 | 16639 ft | 392 kts | 106° |
| 2026-05-05 10:24 | 21.19081 | -157.37788 | 17276 ft | 393 kts | 106° |
| 2026-05-05 10:24 | 21.18373 | -157.34953 | 17868 ft | 395 kts | 105° |
| 2026-05-05 10:24 | 21.17662 | -157.32111 | 18475 ft | 396 kts | 106° |
| 2026-05-05 10:24 | 21.16944 | -157.29240 | 18908 ft | 400 kts | 106° |
| 2026-05-05 10:25 | 21.16222 | -157.26355 | 19386 ft | 403 kts | 106° |
| 2026-05-05 10:25 | 21.15493 | -157.23448 | 19843 ft | 406 kts | 106° |
| 2026-05-05 10:25 | 21.14895 | -157.20486 | 20277 ft | 410 kts | 95° |
| 2026-05-05 10:25 | 21.15036 | -157.17439 | 20749 ft | 412 kts | 78° |
| 2026-05-05 10:26 | 21.15985 | -157.14539 | 21165 ft | 416 kts | 61° |
| 2026-05-05 10:26 | 21.17609 | -157.11966 | 21555 ft | 419 kts | 51° |
| 2026-05-05 10:26 | 21.19409 | -157.09480 | 21928 ft | 424 kts | 51° |
| 2026-05-05 10:26 | 21.21245 | -157.06998 | 22394 ft | 426 kts | 51° |
| 2026-05-05 10:27 | 21.23084 | -157.04540 | 22801 ft | 429 kts | 50° |
| 2026-05-05 10:27 | 21.24972 | -157.02036 | 23228 ft | 432 kts | 50° |
| 2026-05-05 10:27 | 21.26872 | -156.99524 | 23645 ft | 435 kts | 50° |
| 2026-05-05 10:27 | 21.28787 | -156.96995 | 24001 ft | 438 kts | 50° |
| 2026-05-05 10:28 | 21.30712 | -156.94452 | 24366 ft | 440 kts | 50° |
| 2026-05-05 10:28 | 21.32645 | -156.91896 | 24733 ft | 442 kts | 50° |
| 2026-05-05 10:28 | 21.34591 | -156.89322 | 25082 ft | 445 kts | 50° |
| 2026-05-05 10:28 | 21.36545 | -156.86737 | 25446 ft | 447 kts | 50° |
| 2026-05-05 10:29 | 21.38507 | -156.84139 | 25809 ft | 449 kts | 50° |
| 2026-05-05 10:29 | 21.40480 | -156.81526 | 26156 ft | 452 kts | 50° |
| 2026-05-05 10:29 | 21.42441 | -156.78929 | 26491 ft | 454 kts | 49° |
| 2026-05-05 10:29 | 21.44436 | -156.76284 | 26802 ft | 457 kts | 49° |
| 2026-05-05 10:30 | 21.46442 | -156.73623 | 27138 ft | 459 kts | 49° |
| 2026-05-05 10:30 | 21.48457 | -156.70949 | 27470 ft | 462 kts | 49° |
| 2026-05-05 10:30 | 21.50485 | -156.68257 | 27786 ft | 464 kts | 49° |
| 2026-05-05 10:30 | 21.52520 | -156.65554 | 28108 ft | 466 kts | 49° |
| 2026-05-05 10:31 | 21.54566 | -156.62834 | 28438 ft | 469 kts | 49° |
| 2026-05-05 10:31 | 21.56623 | -156.60101 | 28748 ft | 471 kts | 49° |
| 2026-05-05 10:31 | 21.58691 | -156.57350 | 29063 ft | 473 kts | 49° |
| 2026-05-05 10:31 | 21.60763 | -156.54591 | 29374 ft | 475 kts | 49° |
| 2026-05-05 10:32 | 21.62843 | -156.51821 | 29681 ft | 477 kts | 49° |
| 2026-05-05 10:32 | 21.64933 | -156.49037 | 29974 ft | 480 kts | 49° |
| 2026-05-05 10:32 | 21.67029 | -156.46242 | 30265 ft | 482 kts | 48° |
| 2026-05-05 10:32 | 21.69139 | -156.43429 | 30480 ft | 485 kts | 48° |
| 2026-05-05 10:33 | 21.71263 | -156.40593 | 30696 ft | 487 kts | 48° |
| 2026-05-05 10:33 | 21.73370 | -156.37781 | 30959 ft | 489 kts | 48° |
| 2026-05-05 10:33 | 21.75506 | -156.34928 | 31199 ft | 491 kts | 48° |
| 2026-05-05 10:33 | 21.77655 | -156.32056 | 31439 ft | 493 kts | 49° |
| 2026-05-05 10:34 | 21.79810 | -156.29174 | 31683 ft | 495 kts | 49° |
| 2026-05-05 10:34 | 21.81973 | -156.26279 | 31933 ft | 497 kts | 49° |
| 2026-05-05 10:34 | 21.84138 | -156.23382 | 32236 ft | 497 kts | 49° |
| 2026-05-05 10:34 | 21.86307 | -156.20477 | 32560 ft | 497 kts | 49° |
| 2026-05-05 10:35 | 21.88474 | -156.17573 | 32884 ft | 497 kts | 49° |
| 2026-05-05 10:35 | 21.90637 | -156.14672 | 33207 ft | 496 kts | 49° |
| 2026-05-05 10:35 | 21.92798 | -156.11773 | 33548 ft | 496 kts | 48° |
| 2026-05-05 10:35 | 21.94955 | -156.08877 | 33863 ft | 496 kts | 48° |
| 2026-05-05 10:36 | 21.97114 | -156.05978 | 34177 ft | 496 kts | 48° |
| 2026-05-05 10:36 | 21.99271 | -156.03080 | 34442 ft | 496 kts | 48° |
| 2026-05-05 10:36 | 22.00698 | -156.01162 | 34612 ft | 496 kts | 48° |
| 2026-05-05 10:36 | 22.02856 | -155.98259 | 34852 ft | 496 kts | 48° |
| 2026-05-05 10:37 | 22.05012 | -155.95358 | 35073 ft | 496 kts | 48° |
| 2026-05-05 10:37 | 22.07171 | -155.92451 | 35122 ft | 497 kts | 48° |
| 2026-05-05 10:37 | 22.11490 | -155.86631 | 35119 ft | 495 kts | 48° |
| 2026-05-05 10:38 | 22.15793 | -155.80827 | 35122 ft | 496 kts | 48° |
| 2026-05-05 10:38 | 22.20081 | -155.75037 | 35125 ft | 496 kts | 48° |
| 2026-05-05 10:39 | 22.24384 | -155.69219 | 35119 ft | 496 kts | 48° |
| 2026-05-05 10:39 | 22.28684 | -155.63399 | 35120 ft | 496 kts | 48° |
| 2026-05-05 10:40 | 22.32983 | -155.57575 | 35125 ft | 496 kts | 48° |
| 2026-05-05 10:40 | 22.37281 | -155.51746 | 35124 ft | 496 kts | 48° |
| 2026-05-05 10:41 | 22.41581 | -155.45907 | 35143 ft | 496 kts | 48° |
| 2026-05-05 10:41 | 22.45847 | -155.40109 | 35126 ft | 496 kts | 48° |
| 2026-05-05 10:42 | 22.52286 | -155.31344 | 35126 ft | 496 kts | 48° |
| 2026-05-05 10:43 | 22.56580 | -155.25493 | 35126 ft | 496 kts | 48° |
| 2026-05-05 10:43 | 22.60870 | -155.19636 | 35130 ft | 496 kts | 48° |
| 2026-05-05 10:44 | 22.65154 | -155.13783 | 35131 ft | 496 kts | 48° |
| 2026-05-05 10:44 | 22.69445 | -155.07913 | 35128 ft | 497 kts | 48° |
| 2026-05-05 10:45 | 22.73730 | -155.02045 | 35134 ft | 497 kts | 48° |
| 2026-05-05 10:45 | 22.78019 | -154.96165 | 35139 ft | 497 kts | 49° |
| 2026-05-05 10:46 | 22.82302 | -154.90287 | 35132 ft | 497 kts | 49° |
| 2026-05-05 10:46 | 22.86559 | -154.84438 | 35132 ft | 497 kts | 49° |
| 2026-05-05 10:47 | 22.90842 | -154.78547 | 35144 ft | 497 kts | 49° |
| 2026-05-05 10:47 | 22.95120 | -154.72655 | 35136 ft | 497 kts | 49° |
| 2026-05-05 10:48 | 22.99409 | -154.66742 | 35133 ft | 498 kts | 49° |
| 2026-05-05 10:48 | 23.03250 | -154.60457 | 35144 ft | 500 kts | 54° |
| 2026-05-05 10:49 | 23.07051 | -154.54193 | 35132 ft | 499 kts | 54° |
| 2026-05-05 10:49 | 23.10889 | -154.47903 | 35129 ft | 499 kts | 54° |
| 2026-05-05 10:50 | 23.14728 | -154.41607 | 35137 ft | 499 kts | 54° |
| 2026-05-05 10:50 | 23.18566 | -154.35305 | 35137 ft | 500 kts | 54° |
| 2026-05-05 10:51 | 23.22402 | -154.28999 | 35134 ft | 499 kts | 54° |
| 2026-05-05 10:51 | 23.26229 | -154.22701 | 35137 ft | 499 kts | 54° |
| 2026-05-05 10:52 | 23.30030 | -154.16436 | 35148 ft | 499 kts | 54° |
| 2026-05-05 10:52 | 23.33855 | -154.10124 | 35143 ft | 499 kts | 54° |
| 2026-05-05 10:53 | 23.37681 | -154.03803 | 35131 ft | 500 kts | 54° |
| 2026-05-05 10:53 | 23.41508 | -153.97473 | 35135 ft | 500 kts | 54° |
| 2026-05-05 10:54 | 23.45331 | -153.91141 | 35141 ft | 500 kts | 54° |
| 2026-05-05 10:54 | 23.49150 | -153.84808 | 35137 ft | 500 kts | 54° |
| 2026-05-05 10:55 | 23.52942 | -153.78512 | 35142 ft | 500 kts | 54° |
| 2026-05-05 10:55 | 23.56751 | -153.72181 | 35143 ft | 500 kts | 54° |
| 2026-05-05 10:56 | 23.60565 | -153.65832 | 35144 ft | 501 kts | 54° |
| 2026-05-05 10:56 | 23.64387 | -153.59461 | 35144 ft | 501 kts | 54° |
| 2026-05-05 10:57 | 23.68203 | -153.53094 | 35142 ft | 501 kts | 54° |
| 2026-05-05 10:57 | 23.72017 | -153.46722 | 35143 ft | 501 kts | 54° |
| 2026-05-05 10:58 | 23.75829 | -153.40347 | 35141 ft | 501 kts | 54° |
| 2026-05-05 10:58 | 23.79619 | -153.34013 | 35152 ft | 501 kts | 54° |
| 2026-05-05 10:59 | 23.83434 | -153.27638 | 35146 ft | 501 kts | 54° |
| 2026-05-05 10:59 | 23.87254 | -153.21250 | 35144 ft | 502 kts | 54° |
| 2026-05-05 11:00 | 23.91066 | -153.14864 | 35143 ft | 502 kts | 54° |
| 2026-05-05 11:00 | 23.94878 | -153.08472 | 35146 ft | 502 kts | 54° |
| 2026-05-05 11:01 | 23.98691 | -153.02070 | 35152 ft | 502 kts | 54° |
| 2026-05-05 11:01 | 24.02469 | -152.95717 | 35158 ft | 502 kts | 54° |
| 2026-05-05 11:02 | 24.06278 | -152.89305 | 35149 ft | 502 kts | 54° |
| 2026-05-05 11:02 | 24.10081 | -152.82895 | 35150 ft | 502 kts | 54° |
| 2026-05-05 11:03 | 24.13879 | -152.76484 | 35149 ft | 502 kts | 54° |
| 2026-05-05 11:03 | 24.17681 | -152.70058 | 35149 ft | 502 kts | 54° |
| 2026-05-05 11:04 | 24.21476 | -152.63635 | 35145 ft | 502 kts | 54° |
| 2026-05-05 11:04 | 24.25268 | -152.57211 | 35152 ft | 502 kts | 54° |
| 2026-05-05 11:05 | 24.29061 | -152.50775 | 35148 ft | 503 kts | 54° |
| 2026-05-05 11:05 | 24.32855 | -152.44330 | 35148 ft | 502 kts | 54° |
| 2026-05-05 11:06 | 24.36640 | -152.37891 | 35153 ft | 502 kts | 54° |
| 2026-05-05 11:06 | 24.40401 | -152.31485 | 35152 ft | 502 kts | 54° |
| 2026-05-05 11:07 | 24.44181 | -152.25037 | 35159 ft | 502 kts | 54° |
| 2026-05-05 11:07 | 24.47965 | -152.18574 | 35147 ft | 503 kts | 54° |
| 2026-05-05 11:08 | 24.51743 | -152.12112 | 35149 ft | 503 kts | 54° |
| 2026-05-05 11:08 | 24.55516 | -152.05653 | 35149 ft | 503 kts | 54° |
| 2026-05-05 11:09 | 24.59292 | -151.99178 | 35146 ft | 503 kts | 54° |
| 2026-05-05 11:09 | 24.63059 | -151.92709 | 35153 ft | 503 kts | 54° |
| 2026-05-05 11:10 | 24.66826 | -151.86232 | 35152 ft | 502 kts | 54° |
| 2026-05-05 11:10 | 24.70564 | -151.79796 | 35149 ft | 502 kts | 54° |
| 2026-05-05 11:11 | 24.74322 | -151.73319 | 35149 ft | 502 kts | 54° |
| 2026-05-05 11:11 | 24.78076 | -151.66838 | 35148 ft | 502 kts | 54° |
| 2026-05-05 11:12 | 24.81830 | -151.60350 | 35153 ft | 502 kts | 54° |
| 2026-05-05 11:12 | 24.85576 | -151.53864 | 35159 ft | 502 kts | 54° |
| 2026-05-05 11:13 | 24.89322 | -151.47373 | 35150 ft | 501 kts | 54° |
| 2026-05-05 11:13 | 24.93056 | -151.40891 | 35151 ft | 501 kts | 54° |
| 2026-05-05 11:14 | 24.96762 | -151.34450 | 35154 ft | 501 kts | 54° |
| 2026-05-05 11:14 | 25.00495 | -151.27954 | 35154 ft | 501 kts | 54° |
| 2026-05-05 11:15 | 25.04223 | -151.21457 | 35151 ft | 501 kts | 54° |
| 2026-05-05 11:15 | 25.07947 | -151.14959 | 35156 ft | 500 kts | 55° |
| 2026-05-05 11:16 | 25.11658 | -151.08473 | 35153 ft | 500 kts | 55° |
| 2026-05-05 11:16 | 25.15365 | -151.01988 | 35151 ft | 500 kts | 55° |
| 2026-05-05 11:17 | 25.19054 | -150.95523 | 35151 ft | 499 kts | 55° |
| 2026-05-05 11:17 | 25.22752 | -150.89035 | 35151 ft | 499 kts | 55° |
| 2026-05-05 11:18 | 25.26447 | -150.82542 | 35150 ft | 499 kts | 55° |
| 2026-05-05 11:18 | 25.30138 | -150.76048 | 35152 ft | 499 kts | 55° |
| 2026-05-05 11:19 | 25.33810 | -150.69578 | 35150 ft | 499 kts | 55° |
| 2026-05-05 11:19 | 25.37506 | -150.63058 | 35154 ft | 499 kts | 55° |
| 2026-05-05 11:20 | 25.41192 | -150.56545 | 35154 ft | 499 kts | 55° |
| 2026-05-05 11:20 | 25.44873 | -150.50031 | 35176 ft | 499 kts | 55° |
| 2026-05-05 11:21 | 25.48546 | -150.43524 | 35148 ft | 497 kts | 55° |
| 2026-05-05 11:21 | 25.52207 | -150.37028 | 35153 ft | 498 kts | 55° |
| 2026-05-05 11:22 | 25.55873 | -150.30515 | 35153 ft | 498 kts | 55° |
| 2026-05-05 11:22 | 25.59530 | -150.24009 | 35153 ft | 498 kts | 55° |
| 2026-05-05 11:23 | 25.63165 | -150.17534 | 35155 ft | 498 kts | 55° |
| 2026-05-05 11:23 | 25.66813 | -150.11024 | 35153 ft | 496 kts | 55° |
| 2026-05-05 11:24 | 25.70448 | -150.04530 | 35157 ft | 495 kts | 55° |
| 2026-05-05 11:24 | 25.74078 | -149.98036 | 35157 ft | 495 kts | 55° |
| 2026-05-05 11:25 | 25.77711 | -149.91527 | 35160 ft | 495 kts | 55° |
| 2026-05-05 11:25 | 25.81311 | -149.85068 | 35160 ft | 495 kts | 55° |
| 2026-05-05 11:26 | 25.84936 | -149.78553 | 35166 ft | 494 kts | 56° |
| 2026-05-05 11:26 | 25.87930 | -149.73168 | 35158 ft | 493 kts | 56° |
| 2026-05-05 11:27 | 25.91538 | -149.66670 | 35160 ft | 493 kts | 56° |
| 2026-05-05 11:27 | 25.95137 | -149.60177 | 35159 ft | 493 kts | 56° |
| 2026-05-05 11:28 | 25.98735 | -149.53678 | 35159 ft | 493 kts | 56° |
| 2026-05-05 11:28 | 26.02305 | -149.47220 | 35173 ft | 493 kts | 56° |
| 2026-05-05 11:29 | 26.05888 | -149.40728 | 35157 ft | 492 kts | 56° |
| 2026-05-05 11:29 | 26.09470 | -149.34230 | 35160 ft | 492 kts | 56° |
| 2026-05-05 11:30 | 26.13045 | -149.27735 | 35160 ft | 492 kts | 56° |
| 2026-05-05 11:30 | 26.16613 | -149.21244 | 35165 ft | 491 kts | 56° |
| 2026-05-05 11:31 | 26.20180 | -149.14744 | 35165 ft | 492 kts | 56° |
| 2026-05-05 11:31 | 26.23717 | -149.08292 | 35159 ft | 490 kts | 56° |
| 2026-05-05 11:32 | 26.27268 | -149.01803 | 35166 ft | 490 kts | 56° |
| 2026-05-05 11:32 | 26.30820 | -148.95305 | 35170 ft | 490 kts | 56° |
| 2026-05-05 11:33 | 26.34364 | -148.88809 | 35172 ft | 490 kts | 56° |
| 2026-05-05 11:33 | 26.37885 | -148.82349 | 35170 ft | 490 kts | 56° |
| 2026-05-05 11:34 | 26.41421 | -148.75851 | 35166 ft | 489 kts | 56° |
| 2026-05-05 11:34 | 26.44947 | -148.69362 | 35161 ft | 489 kts | 56° |
| 2026-05-05 11:35 | 26.48472 | -148.62866 | 35169 ft | 489 kts | 56° |
| 2026-05-05 11:35 | 26.51995 | -148.56363 | 35166 ft | 489 kts | 57° |
| 2026-05-05 11:36 | 26.55513 | -148.49860 | 35162 ft | 489 kts | 57° |
| 2026-05-05 11:36 | 26.59030 | -148.43350 | 35181 ft | 488 kts | 57° |
| 2026-05-05 11:37 | 26.62509 | -148.36901 | 35174 ft | 488 kts | 57° |
| 2026-05-05 11:37 | 26.66010 | -148.30401 | 35174 ft | 488 kts | 57° |
| 2026-05-05 11:38 | 26.69512 | -148.23891 | 35177 ft | 488 kts | 57° |
| 2026-05-05 11:38 | 26.73008 | -148.17383 | 35173 ft | 488 kts | 57° |
| 2026-05-05 11:39 | 26.76498 | -148.10874 | 35182 ft | 487 kts | 57° |
| 2026-05-05 11:39 | 26.79983 | -148.04367 | 35179 ft | 487 kts | 57° |
| 2026-05-05 11:40 | 26.83459 | -147.97868 | 35174 ft | 487 kts | 57° |
| 2026-05-05 11:40 | 26.86936 | -147.91356 | 35179 ft | 487 kts | 57° |
| 2026-05-05 11:41 | 26.90386 | -147.84885 | 35178 ft | 486 kts | 57° |
| 2026-05-05 11:41 | 26.93858 | -147.78368 | 35189 ft | 486 kts | 57° |
| 2026-05-05 11:42 | 26.97317 | -147.71862 | 35177 ft | 486 kts | 57° |
| 2026-05-05 11:42 | 27.00777 | -147.65347 | 35173 ft | 486 kts | 57° |
| 2026-05-05 11:43 | 27.04210 | -147.58874 | 35177 ft | 486 kts | 57° |
| 2026-05-05 11:43 | 27.07664 | -147.52352 | 35179 ft | 486 kts | 57° |
| 2026-05-05 11:44 | 27.11112 | -147.45830 | 35178 ft | 486 kts | 57° |
| 2026-05-05 11:44 | 27.14558 | -147.39304 | 35182 ft | 486 kts | 57° |
| 2026-05-05 11:45 | 27.18003 | -147.32769 | 35185 ft | 486 kts | 57° |
| 2026-05-05 11:45 | 27.21445 | -147.26232 | 35185 ft | 486 kts | 57° |
| 2026-05-05 11:46 | 27.24875 | -147.19679 | 35180 ft | 486 kts | 57° |
| 2026-05-05 11:46 | 27.28308 | -147.13128 | 35191 ft | 486 kts | 57° |
| 2026-05-05 11:47 | 27.31713 | -147.06627 | 35187 ft | 485 kts | 57° |
| 2026-05-05 11:47 | 27.35135 | -147.00083 | 35186 ft | 485 kts | 57° |
| 2026-05-05 11:48 | 27.40267 | -146.90252 | 35187 ft | 486 kts | 57° |
| 2026-05-05 11:48 | 27.43689 | -146.83684 | 35192 ft | 486 kts | 57° |
| 2026-05-05 11:49 | 27.47104 | -146.77121 | 35186 ft | 486 kts | 57° |
| 2026-05-05 11:49 | 27.50494 | -146.70594 | 35187 ft | 486 kts | 57° |
| 2026-05-05 11:50 | 27.53904 | -146.64020 | 35189 ft | 486 kts | 57° |
| 2026-05-05 11:50 | 27.57311 | -146.57441 | 35185 ft | 486 kts | 57° |
| 2026-05-05 11:51 | 27.60718 | -146.50853 | 35208 ft | 486 kts | 57° |
| 2026-05-05 11:51 | 27.64118 | -146.44268 | 35193 ft | 486 kts | 57° |
| 2026-05-05 11:52 | 27.67494 | -146.37718 | 35194 ft | 486 kts | 57° |
| 2026-05-05 11:52 | 27.70888 | -146.31125 | 35195 ft | 486 kts | 57° |
| 2026-05-05 11:53 | 27.74279 | -146.24526 | 35198 ft | 486 kts | 57° |
| 2026-05-05 11:53 | 27.77669 | -146.17920 | 35202 ft | 486 kts | 57° |
| 2026-05-05 11:54 | 27.81057 | -146.11306 | 35199 ft | 486 kts | 57° |
| 2026-05-05 11:54 | 27.84416 | -146.04740 | 35197 ft | 486 kts | 57° |
| 2026-05-05 11:55 | 27.87796 | -145.98121 | 35200 ft | 486 kts | 57° |
| 2026-05-05 11:55 | 27.91171 | -145.91503 | 35197 ft | 486 kts | 57° |
| 2026-05-05 11:56 | 27.94543 | -145.84881 | 35201 ft | 486 kts | 57° |
| 2026-05-05 11:56 | 27.97908 | -145.78260 | 35197 ft | 486 kts | 57° |